Time;durP1;ratioP1;P1;durP2;ratioP2;P2;SDS_P1;SDS_P2;PMS_P1;PMS_P2;Temp;Humidity;BMP_temperature;BMP_pressure;BME280_temperature;BME280_humidity;BME280_pressure;Samples;Min_cycle;Max_cycle;Signal;HPM_P1;HPM_P2
2022/05/08 00:02:24;;;;;;;19.33;4.30;;;6.80;1.00;;;;;;5111884;27;20441;-50
2022/05/08 00:04:51;;;;;;;16.07;3.70;;;6.70;1.00;;;;;;5111053;27;21334;-50
2022/05/08 00:07:20;;;;;;;18.90;3.83;;;6.80;1.00;;;;;;5111272;28;20461;-56
2022/05/08 00:09:47;;;;;;;13.50;3.97;;;6.70;1.00;;;;;;5111405;28;20501;-50
2022/05/08 00:12:14;;;;;;;9.90;3.50;;;6.70;1.00;;;;;;5111655;27;20444;-50
2022/05/08 00:14:41;;;;;;;17.97;3.77;;;6.60;1.00;;;;;;5110452;27;21002;-50
2022/05/08 00:17:13;;;;;;;14.23;3.07;;;6.60;1.00;;;;;;5111317;28;20434;-51
2022/05/08 00:19:39;;;;;;;15.20;3.30;;;6.50;1.00;;;;;;5110521;27;20482;-50
2022/05/08 00:22:06;;;;;;;14.10;4.03;;;6.50;1.00;;;;;;5111205;28;20438;-50
2022/05/08 00:24:32;;;;;;;11.40;3.20;;;6.50;1.00;;;;;;5111103;28;20434;-50
2022/05/08 00:26:57;;;;;;;13.53;3.70;;;6.40;1.00;;;;;;5110660;28;20437;-49
2022/05/08 00:29:23;;;;;;;12.17;3.30;;;6.30;1.00;;;;;;5110116;28;20477;-50
2022/05/08 00:31:48;;;;;;;11.10;3.37;;;6.40;1.00;;;;;;5110267;28;20197;-50
2022/05/08 00:34:14;;;;;;;9.90;3.10;;;6.40;1.00;;;;;;5111254;27;20546;-50
2022/05/08 00:36:39;;;;;;;13.93;3.63;;;6.30;1.00;;;;;;5110786;28;20192;-50
2022/05/08 00:39:05;;;;;;;8.13;2.97;;;6.30;1.00;;;;;;5111061;28;20555;-50
2022/05/08 00:41:31;;;;;;;20.77;3.77;;;6.20;1.00;;;;;;5109682;27;20204;-50
2022/05/08 00:43:56;;;;;;;9.43;3.77;;;6.20;1.00;;;;;;5110285;27;20487;-50
2022/05/08 00:46:22;;;;;;;16.37;3.90;;;6.20;1.00;;;;;;5110788;28;20216;-50
2022/05/08 00:48:48;;;;;;;13.30;3.60;;;6.20;1.00;;;;;;5107511;28;20285;-49
2022/05/08 00:51:15;;;;;;;18.47;5.40;;;6.10;1.00;;;;;;5111610;28;20222;-50
2022/05/08 00:53:46;;;;;;;10.90;3.73;;;6.10;1.00;;;;;;5110614;28;20188;-50
2022/05/08 00:56:13;;;;;;;11.73;3.73;;;6.00;1.00;;;;;;5110149;28;20434;-50
2022/05/08 00:58:41;;;;;;;15.13;3.40;;;6.00;15.50;;;;;;5109375;28;20438;-50
2022/05/08 01:01:07;;;;;;;16.50;3.97;;;5.90;13.30;;;;;;5110155;28;20939;-50
2022/05/08 01:03:33;;;;;;;11.53;3.27;;;5.80;57.30;;;;;;5110343;28;20438;-50
2022/05/08 01:06:03;;;;;;;14.20;3.50;;;5.80;95.20;;;;;;5109780;27;20915;-50
2022/05/08 01:08:29;;;;;;;13.73;4.33;;;5.80;98.90;;;;;;5110311;28;20332;-50
2022/05/08 01:10:55;;;;;;;15.63;4.30;;;5.80;99.90;;;;;;5111288;28;20451;-50
2022/05/08 01:13:21;;;;;;;17.27;3.80;;;5.70;99.90;;;;;;5111282;28;20197;-50
2022/05/08 01:15:47;;;;;;;23.40;6.40;;;5.70;99.90;;;;;;5111901;28;20430;-50
2022/05/08 01:18:14;;;;;;;17.10;4.20;;;5.70;99.90;;;;;;5111557;28;20967;-50
2022/05/08 01:20:42;;;;;;;18.90;4.47;;;5.80;99.90;;;;;;5111795;28;20643;-50
2022/05/08 01:23:09;;;;;;;15.27;5.40;;;5.70;99.90;;;;;;5111920;28;20490;-50
2022/05/08 01:25:43;;;;;;;25.70;5.30;;;5.80;99.90;;;;;;5111204;27;20869;-50
2022/05/08 01:28:09;;;;;;;15.63;4.53;;;5.80;99.90;;;;;;5111739;28;20470;-50
2022/05/08 01:30:35;;;;;;;15.57;4.50;;;5.70;99.90;;;;;;5111840;28;20490;-50
2022/05/08 01:33:00;;;;;;;26.30;5.80;;;5.70;99.90;;;;;;5110814;28;20430;-50
2022/05/08 01:35:27;;;;;;;24.47;4.50;;;5.70;99.90;;;;;;5111228;28;20188;-50
2022/05/08 01:37:53;;;;;;;19.70;4.40;;;5.70;99.90;;;;;;5111359;28;20215;-50
2022/05/08 01:40:19;;;;;;;12.07;4.20;;;5.70;99.90;;;;;;5104041;28;20438;-50
2022/05/08 01:42:44;;;;;;;11.13;4.20;;;5.60;99.90;;;;;;5109666;28;20200;-50
2022/05/08 01:45:11;;;;;;;20.47;5.13;;;5.60;99.90;;;;;;5111089;28;20193;-50
2022/05/08 01:50:22;;;;;;;18.77;4.57;;;5.60;99.90;;;;;;5111464;28;20453;-50
2022/05/08 01:52:47;;;;;;;18.07;4.60;;;5.50;99.90;;;;;;5112081;28;20433;-50
2022/05/08 01:55:13;;;;;;;16.17;5.20;;;5.50;99.90;;;;;;5111867;28;20245;-50
2022/05/08 01:57:38;;;;;;;13.00;4.27;;;5.50;99.90;;;;;;5110098;28;20196;-50
2022/05/08 02:00:05;;;;;;;17.13;5.07;;;5.40;99.90;;;;;;5096047;28;20216;-50
2022/05/08 02:02:31;;;;;;;15.03;5.57;;;5.30;99.90;;;;;;5111004;28;20200;-50
2022/05/08 02:04:57;;;;;;;23.67;5.80;;;5.30;99.90;;;;;;5112136;28;21111;-50
2022/05/08 02:07:23;;;;;;;19.57;4.80;;;5.30;99.90;;;;;;5112081;28;20438;-50
2022/05/08 02:09:49;;;;;;;17.03;5.50;;;5.30;99.90;;;;;;5110257;28;20244;-50
2022/05/08 02:12:14;;;;;;;17.97;5.33;;;5.30;99.90;;;;;;5107991;28;20245;-50
2022/05/08 02:14:43;;;;;;;14.57;4.80;;;5.20;99.90;;;;;;5108509;28;20200;-55
2022/05/08 02:17:08;;;;;;;21.67;4.40;;;5.20;99.90;;;;;;5090918;28;20204;-50
2022/05/08 02:19:34;;;;;;;22.10;5.20;;;5.10;99.90;;;;;;5109337;28;20480;-50
2022/05/08 02:21:59;;;;;;;24.57;5.47;;;5.10;99.90;;;;;;5108634;28;20192;-50
2022/05/08 02:24:25;;;;;;;28.63;4.87;;;5.10;99.90;;;;;;5109726;28;20196;-50
2022/05/08 02:26:51;;;;;;;14.67;5.33;;;5.10;99.90;;;;;;5112403;28;20323;-50
2022/05/08 02:29:16;;;;;;;24.93;5.70;;;5.10;1.00;;;;;;5111957;28;20801;-50
2022/05/08 02:31:42;;;;;;;19.10;4.90;;;5.00;99.90;;;;;;5111920;28;20200;-50
2022/05/08 02:34:07;;;;;;;20.27;4.93;;;5.00;1.00;;;;;;5113501;28;20215;-50
2022/05/08 02:36:33;;;;;;;19.40;5.13;;;5.00;1.00;;;;;;5112890;27;20188;-50
2022/05/08 02:38:59;;;;;;;14.63;4.47;;;5.00;1.00;;;;;;5113957;28;20204;-50
2022/05/08 02:41:24;;;;;;;18.70;4.80;;;4.90;1.00;;;;;;5113531;28;20225;-50
2022/05/08 02:43:50;;;;;;;19.63;5.60;;;4.90;1.00;;;;;;5113288;28;20200;-50
2022/05/08 02:46:15;;;;;;;25.43;5.13;;;4.90;1.00;;;;;;5109825;27;20200;-50
2022/05/08 02:48:41;;;;;;;25.37;5.93;;;4.80;1.00;;;;;;5107092;28;20211;-50
2022/05/08 02:51:07;;;;;;;20.10;5.03;;;4.80;1.00;;;;;;5112470;27;20253;-51
2022/05/08 02:53:34;;;;;;;30.60;6.23;;;4.80;1.00;;;;;;5112690;28;20193;-50
2022/05/08 02:58:44;;;;;;;12.77;5.13;;;4.70;1.00;;;;;;5106940;28;20452;-50
2022/05/08 03:01:10;;;;;;;20.23;5.57;;;4.70;1.00;;;;;;5112990;28;20537;-50
2022/05/08 03:03:36;;;;;;;12.97;5.00;;;4.70;1.00;;;;;;5109987;28;20192;-50
2022/05/08 03:06:02;;;;;;;22.63;5.67;;;4.70;1.00;;;;;;5112125;27;20441;-51
2022/05/08 03:08:28;;;;;;;19.67;5.53;;;4.60;1.00;;;;;;5111829;27;20466;-50
2022/05/08 03:13:39;;;;;;;15.37;5.60;;;4.60;1.00;;;;;;5105910;28;20268;-50
2022/05/08 03:16:07;;;;;;;15.37;5.30;;;4.60;99.90;;;;;;5111732;28;20429;-50
2022/05/08 03:18:39;;;;;;;20.43;5.20;;;4.60;50.50;;;;;;5112362;28;20441;-50
2022/05/08 03:21:05;;;;;;;15.17;4.63;;;4.50;1.00;;;;;;5111835;28;20453;-50
2022/05/08 03:23:31;;;;;;;12.77;4.63;;;4.50;1.00;;;;;;5111646;27;20442;-55
2022/05/08 03:25:56;;;;;;;17.77;5.63;;;4.50;99.90;;;;;;5110809;28;20442;-50
2022/05/08 03:28:22;;;;;;;17.80;5.33;;;4.50;99.90;;;;;;5112770;28;20219;-50
2022/05/08 03:30:47;;;;;;;29.87;6.57;;;4.40;99.90;;;;;;5112087;28;20253;-50
2022/05/08 03:33:13;;;;;;;23.60;5.70;;;4.40;99.90;;;;;;5112032;28;20204;-50
2022/05/08 03:35:40;;;;;;;20.27;6.90;;;4.40;99.90;;;;;;5110553;27;20229;-50
2022/05/08 03:38:07;;;;;;;19.17;5.70;;;4.40;99.90;;;;;;5110862;27;20203;-50
2022/05/08 03:40:33;;;;;;;21.13;5.67;;;4.50;99.90;;;;;;5108240;27;20824;-50
2022/05/08 03:42:59;;;;;;;15.87;6.23;;;4.50;99.90;;;;;;5112177;27;20434;-50
2022/05/08 03:45:25;;;;;;;22.83;6.53;;;4.50;99.90;;;;;;5110247;27;20438;-50
2022/05/08 03:47:52;;;;;;;27.90;6.17;;;4.50;1.00;;;;;;5106515;28;20200;-50
2022/05/08 03:50:18;;;;;;;20.37;5.87;;;4.60;1.00;;;;;;5104771;28;20430;-50
2022/05/08 03:52:43;;;;;;;19.07;6.20;;;4.60;99.90;;;;;;5102824;27;20500;-50
2022/05/08 03:55:11;;;;;;;16.40;5.57;;;4.70;99.90;;;;;;5092846;28;20426;-50
2022/05/08 03:57:37;;;;;;;15.80;5.80;;;4.70;99.90;;;;;;5109671;27;20207;-50
2022/05/08 04:00:04;;;;;;;24.77;5.70;;;4.70;1.00;;;;;;5095943;28;20918;-50
2022/05/08 04:02:29;;;;;;;20.93;6.23;;;4.80;1.00;;;;;;5112166;27;20434;-50
2022/05/08 04:04:55;;;;;;;14.80;5.87;;;4.80;99.90;;;;;;5110650;27;20436;-51
2022/05/08 04:07:20;;;;;;;16.10;5.50;;;4.80;99.90;;;;;;5111250;28;20196;-51
2022/05/08 04:09:46;;;;;;;19.93;5.67;;;4.80;99.90;;;;;;5109458;28;20220;-50
2022/05/08 04:12:12;;;;;;;18.13;4.30;;;4.90;99.90;;;;;;5110547;27;20188;-50
2022/05/08 04:14:38;;;;;;;15.73;5.10;;;4.80;1.00;;;;;;5112138;27;20196;-50
2022/05/08 04:17:03;;;;;;;20.33;5.80;;;4.90;1.00;;;;;;5111185;28;20426;-50
2022/05/08 04:19:29;;;;;;;20.30;5.40;;;5.00;99.90;;;;;;5111674;28;20749;-50
2022/05/08 04:24:16;;;;;;;20.20;5.27;;;5.00;99.90;;;;;;5108496;28;20204;-51
2022/05/08 04:24:41;;;;;;;16.30;5.90;;;5.10;99.90;;;;;;5099765;28;20978;-50
2022/05/08 04:27:06;;;;;;;18.73;4.40;;;5.10;99.90;;;;;;5111981;28;20462;-50
2022/05/08 04:29:32;;;;;;;16.17;5.00;;;5.20;99.90;;;;;;5111620;28;20497;-50
2022/05/08 04:31:57;;;;;;;14.97;4.40;;;5.20;99.90;;;;;;5110907;27;20208;-50
2022/05/08 04:34:23;;;;;;;14.50;5.27;;;5.30;66.80;;;;;;5110637;28;20282;-50
2022/05/08 04:36:48;;;;;;;12.90;4.40;;;5.30;65.80;;;;;;5108928;28;20250;-50
2022/05/08 04:39:14;;;;;;;20.40;5.50;;;5.40;15.70;;;;;;5111493;28;20199;-50
2022/05/08 04:41:40;;;;;;;14.00;4.70;;;5.40;1.00;;;;;;5110639;27;20285;-50
2022/05/08 04:44:05;;;;;;;19.30;4.70;;;5.50;1.00;;;;;;5110065;28;20184;-50
2022/05/08 04:46:31;;;;;;;18.00;4.67;;;5.60;1.00;;;;;;5105700;27;20437;-50
2022/05/08 04:48:57;;;;;;;24.00;5.00;;;5.70;1.00;;;;;;5108387;28;20211;-50
2022/05/08 04:51:23;;;;;;;13.67;4.23;;;5.90;1.00;;;;;;5109133;28;20274;-50
2022/05/08 04:53:48;;;;;;;14.27;3.83;;;6.00;1.00;;;;;;5107358;27;20540;-50
2022/05/08 04:56:14;;;;;;;17.60;4.30;;;6.10;99.90;;;;;;5099866;28;20577;-50
2022/05/08 04:58:40;;;;;;;18.70;4.03;;;6.20;99.90;;;;;;5110590;28;20200;-50
2022/05/08 05:01:06;;;;;;;7.07;3.60;;;6.30;99.90;;;;;;5109441;28;20196;-50
2022/05/08 05:03:32;;;;;;;10.13;3.27;;;6.40;99.90;;;;;;5099289;27;20537;-50
2022/05/08 05:05:58;;;;;;;16.20;4.00;;;6.50;99.90;;;;;;5090983;28;20185;-50
2022/05/08 05:08:23;;;;;;;27.93;4.97;;;6.60;99.90;;;;;;5090561;28;20693;-50
2022/05/08 05:10:49;;;;;;;22.87;3.70;;;6.70;99.90;;;;;;5090619;28;20200;-50
2022/05/08 05:13:15;;;;;;;14.60;4.17;;;6.80;43.60;;;;;;5090423;28;20595;-50
2022/05/08 05:15:40;;;;;;;13.27;4.00;;;6.80;1.00;;;;;;5090674;28;20185;-50
2022/05/08 05:18:06;;;;;;;12.30;3.33;;;6.80;1.00;;;;;;5090696;28;20751;-50
2022/05/08 05:20:32;;;;;;;14.20;4.20;;;6.90;1.00;;;;;;5090386;28;20710;-50
2022/05/08 05:23:01;;;;;;;19.63;3.70;;;7.00;1.00;;;;;;5090738;28;20189;-50
2022/05/08 05:25:27;;;;;;;9.70;4.03;;;7.20;1.00;;;;;;5090187;28;20169;-50
2022/05/08 05:27:54;;;;;;;13.40;3.23;;;7.40;1.00;;;;;;5090363;28;20442;-50
2022/05/08 05:30:19;;;;;;;17.50;3.50;;;7.50;1.00;;;;;;5090550;28;20889;-50
2022/05/08 05:32:45;;;;;;;22.93;3.40;;;7.60;1.00;;;;;;5090377;28;20506;-50
2022/05/08 05:35:11;;;;;;;14.37;2.80;;;7.80;1.00;;;;;;5090807;28;20181;-50
2022/05/08 05:37:37;;;;;;;13.43;3.50;;;8.00;1.00;;;;;;5090585;28;20411;-50
2022/05/08 05:40:03;;;;;;;21.60;3.40;;;8.20;1.00;;;;;;5090012;28;20809;-50
2022/05/08 05:42:30;;;;;;;13.40;3.10;;;8.50;1.00;;;;;;5090321;28;20666;-49
2022/05/08 05:44:56;;;;;;;15.70;3.07;;;8.50;1.00;;;;;;5090994;28;20431;-49
2022/05/08 05:50:07;;;;;;;16.63;3.00;;;8.90;1.00;;;;;;5090319;28;20297;-50
2022/05/08 05:52:35;;;;;;;14.40;3.00;;;9.10;1.00;;;;;;5090193;28;20407;-50
2022/05/08 05:55:01;;;;;;;17.03;3.07;;;9.30;1.00;;;;;;5089941;28;20457;-50
2022/05/08 05:57:26;;;;;;;11.90;3.17;;;9.50;1.00;;;;;;5090139;28;20422;-50
2022/05/08 05:59:52;;;;;;;23.10;3.37;;;9.60;99.90;;;;;;5074729;28;20451;-50
2022/05/08 06:02:17;;;;;;;17.03;3.20;;;9.80;99.90;;;;;;5093836;28;20201;-50
2022/05/08 06:04:43;;;;;;;16.10;3.00;;;9.90;99.90;;;;;;5094183;28;20181;-50
2022/05/08 06:07:08;;;;;;;13.67;2.60;;;10.10;99.90;;;;;;5093783;28;20696;-50
2022/05/08 06:09:34;;;;;;;13.93;2.97;;;10.20;99.90;;;;;;5093681;28;20225;-50
2022/05/08 06:11:59;;;;;;;17.77;3.20;;;10.30;99.90;;;;;;5092405;28;20189;-49
2022/05/08 06:14:25;;;;;;;13.73;2.53;;;10.40;99.90;;;;;;5093672;28;20221;-50
2022/05/08 06:16:51;;;;;;;14.93;3.47;;;10.50;99.90;;;;;;5093783;28;20168;-50
2022/05/08 06:19:16;;;;;;;23.70;2.53;;;10.60;99.90;;;;;;5093822;28;20240;-49
2022/05/08 06:21:42;;;;;;;8.93;2.60;;;10.70;99.90;;;;;;5093545;28;20189;-49
2022/05/08 06:24:07;;;;;;;14.00;2.50;;;10.90;99.90;;;;;;5093686;28;20263;-49
2022/05/08 06:26:33;;;;;;;12.57;2.70;;;10.80;99.90;;;;;;5093438;28;20597;-50
2022/05/08 06:28:59;;;;;;;16.73;2.87;;;10.80;99.90;;;;;;5093496;28;20262;-50
2022/05/08 06:31:25;;;;;;;14.20;2.90;;;10.90;99.90;;;;;;5075254;28;20208;-49
2022/05/08 06:33:51;;;;;;;13.00;2.73;;;11.00;99.90;;;;;;5093117;28;20185;-52
2022/05/08 06:36:16;;;;;;;15.70;2.70;;;11.00;99.90;;;;;;5093395;28;20480;-52
2022/05/08 06:38:42;;;;;;;13.43;2.93;;;11.10;99.90;;;;;;5093399;28;20305;-53
2022/05/08 06:41:08;;;;;;;14.10;3.17;;;11.20;99.90;;;;;;5091916;28;20197;-52
2022/05/08 06:43:33;;;;;;;18.73;4.30;;;11.30;99.90;;;;;;5093003;28;20206;-52
2022/05/08 06:45:59;;;;;;;14.70;2.97;;;11.40;99.90;;;;;;5093176;28;20223;-52
2022/05/08 06:48:27;;;;;;;18.67;3.07;;;11.50;99.90;;;;;;5092989;28;20548;-52
2022/05/08 06:50:53;;;;;;;16.00;3.67;;;11.40;99.90;;;;;;5093079;28;20173;-52
2022/05/08 06:53:18;;;;;;;19.43;4.10;;;11.60;99.90;;;;;;5093119;28;20752;-52
2022/05/08 06:55:45;;;;;;;16.13;3.80;;;11.70;99.90;;;;;;5092748;28;20418;-52
2022/05/08 06:58:11;;;;;;;12.73;2.90;;;11.80;99.90;;;;;;5093157;28;20505;-52
2022/05/08 07:03:21;;;;;;;14.80;2.83;;;12.10;99.90;;;;;;5092715;28;20254;-50
2022/05/08 07:05:47;;;;;;;18.27;3.23;;;12.30;99.90;;;;;;5091525;28;20450;-52
2022/05/08 07:08:14;;;;;;;14.03;2.80;;;12.40;99.90;;;;;;5092532;28;20212;-52
2022/05/08 07:10:40;;;;;;;13.43;3.17;;;12.60;99.90;;;;;;5091465;28;20426;-52
2022/05/08 07:13:05;;;;;;;22.20;3.30;;;12.90;99.90;;;;;;5092766;28;21027;-51
2022/05/08 07:15:31;;;;;;;13.97;2.83;;;13.20;99.90;;;;;;5092617;28;20425;-52
2022/05/08 07:17:56;;;;;;;19.03;3.30;;;13.40;99.90;;;;;;5092507;28;20192;-51
2022/05/08 07:20:23;;;;;;;28.13;4.23;;;13.50;99.90;;;;;;5092328;28;20286;-52
2022/05/08 07:22:49;;;;;;;12.40;2.70;;;13.60;99.90;;;;;;5091174;28;20193;-51
2022/05/08 07:25:14;;;;;;;12.27;2.97;;;13.60;99.90;;;;;;5092229;28;20426;-52
2022/05/08 07:27:40;;;;;;;10.30;2.83;;;13.80;99.90;;;;;;5092631;28;20181;-52
2022/05/08 07:30:07;;;;;;;11.30;3.27;;;13.90;99.90;;;;;;5092077;28;20541;-51
2022/05/08 07:32:34;;;;;;;16.90;3.13;;;14.00;99.90;;;;;;5092180;28;20185;-52
2022/05/08 07:37:44;;;;;;;14.03;2.50;;;14.30;99.90;;;;;;5092112;28;20449;-51
2022/05/08 07:40:11;;;;;;;9.53;2.87;;;14.50;99.90;;;;;;5092121;28;20853;-52
2022/05/08 07:42:37;;;;;;;13.80;2.43;;;14.70;99.90;;;;;;5092330;28;20177;-52
2022/05/08 07:45:06;;;;;;;14.70;2.97;;;14.90;99.90;;;;;;5092023;28;20415;-52
2022/05/08 07:47:32;;;;;;;11.90;3.10;;;14.90;99.90;;;;;;5091883;28;20181;-52
2022/05/08 07:49:58;;;;;;;13.50;3.00;;;14.90;99.90;;;;;;5091515;28;20516;-51
2022/05/08 07:52:23;;;;;;;12.10;2.70;;;14.90;99.90;;;;;;5091949;28;20399;-52
2022/05/08 07:54:49;;;;;;;13.60;3.27;;;15.10;99.90;;;;;;5092132;28;20177;-52
2022/05/08 07:57:15;;;;;;;13.33;3.00;;;15.40;99.90;;;;;;5091546;28;20262;-52
2022/05/08 07:59:41;;;;;;;12.93;3.07;;;15.50;99.90;;;;;;5090368;28;20733;-52
2022/05/08 08:02:07;;;;;;;17.63;3.17;;;15.90;99.90;;;;;;5091560;28;20926;-52
2022/05/08 08:04:34;;;;;;;14.90;3.30;;;15.60;99.90;;;;;;5091466;28;20271;-52
2022/05/08 08:07:00;;;;;;;9.43;2.63;;;15.80;99.90;;;;;;5091530;28;20822;-52
2022/05/08 08:09:26;;;;;;;10.20;3.33;;;15.80;99.90;;;;;;5091301;28;20828;-52
2022/05/08 08:11:53;;;;;;;15.37;3.03;;;15.70;99.90;;;;;;5091058;28;20469;-52
2022/05/08 08:14:20;;;;;;;12.27;3.43;;;15.90;99.90;;;;;;5091140;28;20177;-53
2022/05/08 08:16:45;;;;;;;11.83;3.33;;;16.20;99.90;;;;;;5091259;28;20415;-53
2022/05/08 08:19:11;;;;;;;13.17;3.50;;;16.40;99.90;;;;;;5090811;28;20471;-51
2022/05/08 08:21:37;;;;;;;13.00;3.07;;;16.70;99.90;;;;;;5089890;28;20193;-52
2022/05/08 08:24:02;;;;;;;12.63;3.60;;;16.70;99.90;;;;;;5091112;28;20192;-52
2022/05/08 08:26:28;;;;;;;18.00;3.07;;;16.40;99.90;;;;;;5090939;28;20908;-52
2022/05/08 08:28:53;;;;;;;9.40;2.83;;;16.30;99.90;;;;;;5090823;28;20220;-51
2022/05/08 08:31:19;;;;;;;10.97;2.57;;;16.30;99.90;;;;;;5090972;28;20185;-51
2022/05/08 08:33:45;;;;;;;12.03;3.27;;;16.50;99.90;;;;;;5090901;28;20325;-52
2022/05/08 08:36:11;;;;;;;9.33;3.00;;;16.50;99.90;;;;;;5090966;28;20631;-51
2022/05/08 08:38:37;;;;;;;15.77;3.93;;;16.70;99.90;;;;;;5090739;28;20185;-51
2022/05/08 08:41:04;;;;;;;12.73;3.07;;;17.10;99.90;;;;;;5090602;28;20804;-51
2022/05/08 08:47:42;;;;;;;13.40;3.00;;;17.30;99.90;;;;;;5090957;28;20869;-51
2022/05/08 08:49:24;;;;;;;8.63;3.60;;;17.60;99.90;;;;;;5091089;28;20477;-51
2022/05/08 08:51:51;;;;;;;13.23;3.10;;;17.80;99.90;;;;;;5090746;28;20427;-51
2022/05/08 08:54:19;;;;;;;9.53;3.13;;;17.90;99.90;;;;;;5090679;28;20423;-51
2022/05/08 08:56:45;;;;;;;16.07;3.43;;;17.80;99.90;;;;;;5072214;28;20898;-52
2022/05/08 08:59:11;;;;;;;9.90;3.60;;;17.90;99.90;;;;;;5090440;28;20407;-51
2022/05/08 09:01:41;;;;;;;11.57;3.00;;;18.00;99.90;;;;;;5090424;28;20427;-51
2022/05/08 09:04:08;;;;;;;12.43;3.60;;;18.40;99.90;;;;;;5090540;28;20185;-51
2022/05/08 09:06:38;;;;;;;11.60;2.77;;;18.60;99.90;;;;;;5090474;28;20502;-51
2022/05/08 09:09:31;;;;;;;10.90;3.10;;;18.70;99.90;;;;;;5090346;28;20463;-50
2022/05/08 09:11:57;;;;;;;14.13;3.70;;;18.40;99.90;;;;;;5089957;28;20392;-52
2022/05/08 09:14:36;;;;;;;10.00;3.03;;;18.00;99.90;;;;;;5090321;28;20438;-51
2022/05/08 09:17:04;;;;;;;13.97;3.17;;;17.80;99.90;;;;;;5090148;28;20395;-51
2022/05/08 09:19:39;;;;;;;14.37;3.60;;;17.80;99.90;;;;;;5090174;28;20475;-52
2022/05/08 09:22:08;;;;;;;14.23;3.27;;;18.20;99.90;;;;;;5090152;28;20729;-51
2022/05/08 09:24:35;;;;;;;13.60;3.50;;;18.60;99.90;;;;;;5089878;28;20473;-51
2022/05/08 09:27:16;;;;;;;16.30;4.03;;;18.70;99.90;;;;;;5089952;28;20425;-51
2022/05/08 09:29:42;;;;;;;15.53;3.40;;;18.70;99.90;;;;;;5090185;28;20578;-51
2022/05/08 09:32:09;;;;;;;12.30;3.70;;;18.70;99.90;;;;;;5090066;28;20457;-50
2022/05/08 09:34:55;;;;;;;14.27;3.10;;;18.70;99.90;;;;;;5094972;28;20439;-51
2022/05/08 09:37:20;;;;;;;16.27;3.60;;;18.70;99.90;;;;;;5096720;28;20494;-51
2022/05/08 09:39:46;;;;;;;13.67;3.23;;;18.70;99.90;;;;;;5096658;28;20494;-50
2022/05/08 09:42:39;;;;;;;18.20;3.20;;;18.50;99.90;;;;;;5096847;28;20196;-51
2022/05/08 09:45:07;;;;;;;18.63;4.17;;;18.20;99.90;;;;;;5097078;28;20945;-50
2022/05/08 09:47:47;;;;;;;15.83;3.43;;;18.30;99.90;;;;;;5096865;28;20477;-51
2022/05/08 09:50:15;;;;;;;11.70;3.23;;;18.30;99.90;;;;;;5096556;28;20427;-51
2022/05/08 09:52:42;;;;;;;13.63;3.63;;;18.30;99.90;;;;;;5096699;28;20442;-51
2022/05/08 09:55:09;;;;;;;12.67;3.80;;;18.60;99.90;;;;;;5096413;28;20827;-51
2022/05/08 09:57:35;;;;;;;9.10;3.40;;;18.90;99.90;;;;;;5096404;28;20415;-51
2022/05/08 10:00:05;;;;;;;14.43;3.60;;;19.30;99.90;;;;;;5096569;28;20423;-51
2022/05/08 10:02:31;;;;;;;11.50;3.53;;;19.40;99.90;;;;;;5078014;28;20944;-51
2022/05/08 10:04:57;;;;;;;9.27;3.20;;;19.10;99.90;;;;;;5096658;28;20408;-51
2022/05/08 10:07:24;;;;;;;16.90;3.63;;;19.20;99.90;;;;;;5096422;28;20173;-51
2022/05/08 10:15:34;;;;;;;9.73;3.53;;;19.10;99.90;;;;;;5096823;28;20406;-52
2022/05/08 10:18:22;;;;;;;17.73;4.40;;;19.10;99.90;;;;;;5096663;28;20430;-51
2022/05/08 10:21:06;;;;;;;11.00;3.70;;;19.40;99.90;;;;;;5096519;28;20462;-51
2022/05/08 10:23:47;;;;;;;18.40;3.57;;;19.70;99.90;;;;;;5096432;28;20490;-50
2022/05/08 10:26:20;;;;;;;14.17;4.10;;;20.10;99.90;;;;;;5096116;28;20419;-51
2022/05/08 10:29:03;;;;;;;12.87;3.83;;;20.10;99.90;;;;;;5096381;28;20450;-52
2022/05/08 10:31:49;;;;;;;15.47;3.70;;;20.50;99.90;;;;;;5096481;28;20406;-50
2022/05/08 10:34:16;;;;;;;14.23;4.00;;;20.70;99.90;;;;;;5096279;28;20410;-50
2022/05/08 10:37:10;;;;;;;18.03;4.30;;;20.70;99.90;;;;;;5096346;28;20782;-51
2022/05/08 10:39:38;;;;;;;13.50;3.93;;;20.90;99.90;;;;;;5078344;28;20422;-51
2022/05/08 10:42:04;;;;;;;18.53;4.03;;;21.50;99.90;;;;;;5096015;28;20424;-51
2022/05/08 10:44:37;;;;;;;14.10;3.73;;;21.40;99.90;;;;;;5095722;28;20404;-51
2022/05/08 10:47:31;;;;;;;11.27;4.00;;;21.50;99.90;;;;;;5092331;28;20412;-52
2022/05/08 10:49:57;;;;;;;10.10;3.90;;;21.40;99.90;;;;;;5089002;28;20463;-50
2022/05/08 10:52:23;;;;;;;18.33;4.57;;;21.40;99.90;;;;;;5092994;28;21121;-51
2022/05/08 10:55:08;;;;;;;9.93;3.53;;;21.50;99.90;;;;;;5092718;28;20541;-51
2022/05/08 10:57:35;;;;;;;11.33;3.77;;;21.80;99.90;;;;;;5092825;28;20199;-52
2022/05/08 11:00:06;;;;;;;18.43;4.43;;;21.80;99.90;;;;;;5092921;28;20488;-50
2022/05/08 11:02:43;;;;;;;13.50;3.90;;;22.00;99.90;;;;;;5093309;28;21194;-50
2022/05/08 11:05:17;;;;;;;13.87;4.00;;;22.30;99.90;;;;;;5074234;28;20507;-50
2022/05/08 11:07:49;;;;;;;10.37;3.50;;;22.60;99.90;;;;;;5092205;28;20403;-50
2022/05/08 11:10:16;;;;;;;14.70;4.70;;;22.70;99.90;;;;;;5092407;28;21289;-50
2022/05/08 11:12:55;;;;;;;11.33;4.03;;;22.70;99.90;;;;;;5092915;28;20439;-50
2022/05/08 11:15:22;;;;;;;12.30;3.73;;;22.40;99.90;;;;;;5092506;28;20408;-50
2022/05/08 11:17:59;;;;;;;12.33;4.20;;;22.50;99.90;;;;;;5092168;28;20514;-50
2022/05/08 11:20:25;;;;;;;8.43;3.77;;;22.50;99.90;;;;;;5092198;28;20823;-50
2022/05/08 11:22:55;;;;;;;8.50;3.40;;;22.00;99.90;;;;;;5092406;28;20423;-50
2022/05/08 11:25:20;;;;;;;13.47;4.47;;;22.20;99.90;;;;;;5092008;28;20593;-50
2022/05/08 11:27:53;;;;;;;9.00;4.20;;;22.60;99.90;;;;;;5090895;28;20439;-50
2022/05/08 11:30:35;;;;;;;13.50;4.23;;;22.70;99.90;;;;;;5092011;28;20196;-49
2022/05/08 11:36:04;;;;;;;17.27;4.57;;;22.90;99.90;;;;;;5092059;28;20472;-50
2022/05/08 11:38:41;;;;;;;8.90;3.50;;;22.90;99.90;;;;;;5091858;28;20460;-50
2022/05/08 11:41:12;;;;;;;11.60;3.60;;;23.00;99.90;;;;;;5091606;28;20979;-50
2022/05/08 11:43:49;;;;;;;12.47;3.80;;;22.80;99.90;;;;;;5091729;28;20861;-50
2022/05/08 11:46:20;;;;;;;10.50;5.07;;;22.60;99.90;;;;;;5091870;28;20487;-50
2022/05/08 11:48:47;;;;;;;17.27;4.30;;;22.70;99.90;;;;;;5091712;28;20486;-52
2022/05/08 11:51:15;;;;;;;11.53;3.57;;;22.80;99.90;;;;;;5091527;28;20404;-51
2022/05/08 11:53:43;;;;;;;14.70;4.10;;;23.10;99.90;;;;;;5091811;28;21254;-51
2022/05/08 11:56:26;;;;;;;14.57;3.90;;;23.20;99.90;;;;;;5091112;28;20795;-51
2022/05/08 11:58:52;;;;;;;11.73;3.43;;;23.40;99.90;;;;;;5091643;28;20415;-52
2022/05/08 12:01:25;;;;;;;13.83;3.67;;;23.70;99.90;;;;;;5091584;28;20876;-50
2022/05/08 12:03:50;;;;;;;10.23;3.07;;;24.00;99.90;;;;;;5091439;28;20257;-51
2022/05/08 12:06:16;;;;;;;7.87;3.03;;;24.00;99.90;;;;;;5091224;28;20889;-52
2022/05/08 12:08:42;;;;;;;10.80;3.50;;;23.80;99.90;;;;;;5091379;28;20711;-51
2022/05/08 12:11:29;;;;;;;9.10;3.70;;;23.90;99.90;;;;;;5091465;28;20189;-51
2022/05/08 12:14:08;;;;;;;10.43;3.53;;;24.30;99.90;;;;;;5091246;28;20414;-50
2022/05/08 12:16:35;;;;;;;14.37;3.63;;;23.90;99.90;;;;;;5091192;28;20395;-50
2022/05/08 12:19:18;;;;;;;12.27;3.90;;;24.20;99.90;;;;;;5090628;28;20478;-50
2022/05/08 12:21:48;;;;;;;11.87;4.13;;;24.40;99.90;;;;;;5090986;28;20456;-51
2022/05/08 12:24:17;;;;;;;12.07;4.00;;;24.30;99.90;;;;;;5091072;28;20411;-51
2022/05/08 12:26:43;;;;;;;9.83;3.50;;;23.20;99.90;;;;;;5091209;28;20933;-51
2022/05/08 12:29:20;;;;;;;11.97;3.77;;;23.00;99.90;;;;;;5090877;28;20459;-50
2022/05/08 12:31:46;;;;;;;9.53;3.60;;;23.30;99.90;;;;;;5090864;28;20958;-51
2022/05/08 12:34:13;;;;;;;7.77;3.17;;;23.60;99.90;;;;;;5090891;28;20492;-51
2022/05/08 12:36:40;;;;;;;8.43;3.47;;;23.30;99.90;;;;;;5090847;28;20822;-51
2022/05/08 12:39:07;;;;;;;15.87;4.70;;;23.30;99.90;;;;;;5090953;28;20851;-51
2022/05/08 12:41:33;;;;;;;10.40;3.60;;;23.50;99.90;;;;;;5090511;28;20943;-51
2022/05/08 12:43:59;;;;;;;15.37;4.13;;;23.70;99.90;;;;;;5090662;28;20422;-51
2022/05/08 12:46:25;;;;;;;8.10;3.17;;;23.90;99.90;;;;;;5090501;28;20421;-51
2022/05/08 12:48:50;;;;;;;10.63;3.53;;;23.60;99.90;;;;;;5090450;28;20455;-52
2022/05/08 12:51:16;;;;;;;7.73;3.50;;;23.60;99.90;;;;;;5090469;28;20193;-53
2022/05/08 12:53:42;;;;;;;11.17;3.80;;;23.70;99.90;;;;;;5090419;28;20560;-52
2022/05/08 12:56:08;;;;;;;13.20;3.80;;;23.80;99.90;;;;;;5090618;28;20231;-51
2022/05/08 13:01:38;;;;;;;13.73;3.60;;;24.10;99.90;;;;;;5008188;28;20437;-51
2022/05/08 13:04:05;;;;;;;14.23;3.63;;;24.10;99.90;;;;;;5007977;28;21051;-51
2022/05/08 13:06:31;;;;;;;8.67;3.07;;;23.80;99.90;;;;;;5046485;28;20192;-53
2022/05/08 13:08:56;;;;;;;12.03;3.67;;;24.00;99.90;;;;;;5071594;28;20469;-53
2022/05/08 13:11:22;;;;;;;11.77;3.60;;;24.10;99.90;;;;;;5090315;28;21035;-52
2022/05/08 13:13:47;;;;;;;9.87;3.23;;;23.90;99.90;;;;;;5090251;28;20192;-52
2022/05/08 13:16:14;;;;;;;8.47;2.93;;;24.00;99.90;;;;;;5090110;28;20180;-51
2022/05/08 13:18:41;;;;;;;14.60;3.20;;;24.10;99.90;;;;;;5090020;28;20181;-52
2022/05/08 13:21:07;;;;;;;7.23;3.20;;;24.30;99.90;;;;;;5090190;28;20427;-52